Time;durP1;ratioP1;P1;durP2;ratioP2;P2;SDS_P1;SDS_P2;PMS_P1;PMS_P2;Temp;Humidity;BMP_temperature;BMP_pressure;BME280_temperature;BME280_humidity;BME280_pressure;Samples;Min_cycle;Max_cycle;Signal;HPM_P1;HPM_P2
2022/05/26 00:01:21;;;;;;;6.72;4.22;;;23.30;96.70;;;;;;5053624;28;20072;-78
2022/05/26 00:03:51;;;;;;;7.63;4.22;;;23.40;96.70;;;;;;5055650;28;20414;-79
2022/05/26 00:06:21;;;;;;;7.22;4.22;;;23.40;96.70;;;;;;5055458;28;20457;-79
2022/05/26 00:08:50;;;;;;;6.28;3.78;;;23.50;96.70;;;;;;5054780;28;20095;-79
2022/05/26 00:11:20;;;;;;;7.93;3.70;;;23.50;96.70;;;;;;5049185;28;20049;-79
2022/05/26 00:13:50;;;;;;;7.75;3.50;;;23.60;96.70;;;;;;5055855;28;20117;-79
2022/05/26 00:16:18;;;;;;;8.48;4.10;;;23.70;96.70;;;;;;5057164;28;20044;-79
2022/05/26 00:18:47;;;;;;;6.07;3.15;;;23.60;96.70;;;;;;5051639;28;20051;-79
2022/05/26 00:21:15;;;;;;;6.72;3.65;;;23.50;96.70;;;;;;5053623;28;20051;-79
2022/05/26 00:23:43;;;;;;;9.68;3.40;;;23.40;96.70;;;;;;5058136;28;20122;-78
2022/05/26 00:26:11;;;;;;;7.40;3.63;;;23.40;96.70;;;;;;5052570;28;20804;-79
2022/05/26 00:28:39;;;;;;;6.63;3.58;;;23.50;96.70;;;;;;5058106;28;20125;-79
2022/05/26 00:31:09;;;;;;;6.90;3.75;;;23.60;96.70;;;;;;5053603;28;20511;-78
2022/05/26 00:33:37;;;;;;;6.63;3.80;;;23.50;96.70;;;;;;5052632;28;20199;-78
2022/05/26 00:36:07;;;;;;;7.95;3.75;;;23.50;96.70;;;;;;5051892;28;20041;-78
2022/05/26 00:38:35;;;;;;;7.47;3.67;;;23.50;96.70;;;;;;5043226;28;20063;-78
2022/05/26 00:41:04;;;;;;;6.15;3.60;;;23.40;96.70;;;;;;5050528;28;20048;-78
2022/05/26 00:43:33;;;;;;;4.13;3.20;;;23.40;96.70;;;;;;5051209;28;20606;-78
2022/05/26 00:46:06;;;;;;;5.45;3.30;;;23.40;96.70;;;;;;5054172;28;20145;-78
2022/05/26 00:48:43;;;;;;;7.00;3.72;;;23.50;96.70;;;;;;5052175;28;20057;-78
2022/05/26 00:51:12;;;;;;;8.85;3.80;;;23.40;96.70;;;;;;5040043;28;20504;-78
2022/05/26 00:53:44;;;;;;;7.90;3.88;;;23.10;96.70;;;;;;5058329;28;20512;-78
2022/05/26 00:56:18;;;;;;;7.78;3.63;;;23.20;96.70;;;;;;5049497;28;20041;-75
2022/05/26 00:58:52;;;;;;;6.65;3.85;;;23.30;96.70;;;;;;5053210;28;20041;-76
2022/05/26 01:01:21;;;;;;;6.75;3.30;;;23.40;96.70;;;;;;5053909;28;20083;-75
2022/05/26 01:03:55;;;;;;;8.50;3.72;;;23.30;96.70;;;;;;5055932;28;20559;-75
2022/05/26 01:06:28;;;;;;;8.43;3.20;;;23.20;96.70;;;;;;5052829;28;20053;-75
2022/05/26 01:08:58;;;;;;;7.25;3.25;;;23.20;96.70;;;;;;5056730;28;20043;-76
2022/05/26 01:11:29;;;;;;;4.90;3.78;;;23.10;96.70;;;;;;5043838;28;20874;-74
2022/05/26 01:14:01;;;;;;;6.32;3.90;;;23.00;96.70;;;;;;5050175;28;20524;-76
2022/05/26 01:16:37;;;;;;;7.47;3.35;;;23.00;96.70;;;;;;5056647;28;20051;-78
2022/05/26 01:19:26;;;;;;;9.57;3.83;;;23.00;96.70;;;;;;5050681;28;20160;-75
2022/05/26 01:21:59;;;;;;;5.20;3.28;;;23.00;96.70;;;;;;5052775;28;20083;-78
2022/05/26 01:25:01;;;;;;;6.88;3.20;;;23.00;96.70;;;;;;5040861;28;20056;-77
2022/05/26 01:27:34;;;;;;;4.72;3.40;;;23.00;96.70;;;;;;5041035;28;20422;-78
2022/05/26 01:30:15;;;;;;;9.07;3.80;;;23.10;96.70;;;;;;5054523;28;20379;-78
2022/05/26 01:33:14;;;;;;;7.00;3.15;;;23.10;96.70;;;;;;5055917;28;20422;-75
2022/05/26 01:35:53;;;;;;;5.93;3.15;;;23.00;96.70;;;;;;5040722;28;20048;-76
2022/05/26 01:38:28;;;;;;;8.52;3.50;;;23.00;96.70;;;;;;5052728;28;20075;-75
2022/05/26 01:41:05;;;;;;;6.20;3.13;;;22.90;96.70;;;;;;5053766;28;20041;-76
2022/05/26 01:43:39;;;;;;;8.55;3.97;;;23.00;96.70;;;;;;5033870;28;20051;-75
2022/05/26 01:46:18;;;;;;;7.90;3.60;;;23.00;96.70;;;;;;5051873;28;20049;-75
2022/05/26 01:48:53;;;;;;;4.47;2.97;;;22.80;96.70;;;;;;5054189;28;20048;-76
2022/05/26 01:51:27;;;;;;;5.38;3.13;;;22.80;96.70;;;;;;5053485;28;20055;-75
2022/05/26 01:54:03;;;;;;;7.18;3.38;;;22.80;96.70;;;;;;5058351;28;20498;-78
2022/05/26 01:56:37;;;;;;;5.68;3.30;;;22.80;96.70;;;;;;5038755;28;20053;-78
2022/05/26 01:59:09;;;;;;;7.03;3.80;;;22.90;96.70;;;;;;5057087;28;20044;-75
2022/05/26 02:01:42;;;;;;;6.43;3.83;;;22.90;96.70;;;;;;5041143;28;20053;-75
2022/05/26 02:04:17;;;;;;;6.50;3.70;;;22.80;96.70;;;;;;5036883;28;20087;-75
2022/05/26 02:06:50;;;;;;;6.65;3.42;;;22.80;96.70;;;;;;5057204;28;20041;-75
2022/05/26 02:09:24;;;;;;;6.15;3.53;;;22.80;96.70;;;;;;5056985;28;20055;-75
2022/05/26 02:12:01;;;;;;;6.00;3.25;;;22.60;96.70;;;;;;5043551;28;20053;-76
2022/05/26 02:14:36;;;;;;;7.30;3.20;;;22.50;96.70;;;;;;5058912;28;20131;-76
2022/05/26 02:17:09;;;;;;;9.63;3.78;;;22.30;96.70;;;;;;5056876;28;20094;-76
2022/05/26 02:19:45;;;;;;;6.75;3.63;;;22.30;96.70;;;;;;5054473;28;20037;-76
2022/05/26 02:22:20;;;;;;;6.57;3.63;;;22.30;96.70;;;;;;5054847;28;20037;-76
2022/05/26 02:24:54;;;;;;;6.30;3.97;;;22.30;96.70;;;;;;5053418;28;20502;-76
2022/05/26 02:27:23;;;;;;;7.88;3.78;;;22.30;96.70;;;;;;5057973;28;20056;-76
2022/05/26 02:29:51;;;;;;;7.80;4.22;;;22.30;96.70;;;;;;5059590;28;20037;-76
2022/05/26 02:32:23;;;;;;;6.10;3.88;;;22.30;96.70;;;;;;5041697;28;20044;-76
2022/05/26 02:34:54;;;;;;;7.07;4.13;;;22.30;96.70;;;;;;5058495;28;20041;-75
2022/05/26 02:37:24;;;;;;;9.27;4.15;;;22.40;96.70;;;;;;5058607;28;20132;-77
2022/05/26 02:39:53;;;;;;;8.50;4.32;;;22.40;96.70;;;;;;5057240;28;20037;-76
2022/05/26 02:42:24;;;;;;;7.38;4.32;;;22.40;96.70;;;;;;5056544;28;20076;-76
2022/05/26 02:44:53;;;;;;;9.18;4.00;;;22.40;96.70;;;;;;5055748;28;20052;-77
2022/05/26 02:47:35;;;;;;;7.88;4.68;;;22.40;96.70;;;;;;5058218;28;20166;-77
2022/05/26 02:50:16;;;;;;;4.93;3.88;;;22.40;96.70;;;;;;5058577;28;20143;-76
2022/05/26 02:52:54;;;;;;;7.30;4.20;;;22.30;96.70;;;;;;5058385;28;20045;-76
2022/05/26 02:55:33;;;;;;;5.68;3.97;;;22.30;96.70;;;;;;5055495;28;20068;-76
2022/05/26 02:58:11;;;;;;;4.75;3.75;;;22.30;96.70;;;;;;5057219;28;20067;-76
2022/05/26 03:00:46;;;;;;;6.88;4.20;;;22.20;96.70;;;;;;5055218;28;20038;-76
2022/05/26 03:03:20;;;;;;;10.50;4.35;;;22.30;96.70;;;;;;5054930;28;20063;-76
2022/05/26 03:05:53;;;;;;;4.63;3.45;;;22.40;96.70;;;;;;5056843;28;20059;-76
2022/05/26 03:08:25;;;;;;;9.68;4.57;;;22.50;96.70;;;;;;5062133;28;20135;-77
2022/05/26 03:11:01;;;;;;;4.88;3.58;;;22.50;96.70;;;;;;5037353;28;20045;-76
2022/05/26 03:13:29;;;;;;;8.63;4.05;;;22.50;96.70;;;;;;5061960;28;20556;-75
2022/05/26 03:15:57;;;;;;;5.82;3.47;;;22.40;96.70;;;;;;5058134;28;20573;-76
2022/05/26 03:18:25;;;;;;;10.43;4.22;;;22.50;96.70;;;;;;5055587;28;20049;-76
2022/05/26 03:20:58;;;;;;;7.32;3.83;;;22.60;96.70;;;;;;5053616;28;20498;-76
2022/05/26 03:23:26;;;;;;;9.23;4.65;;;22.60;96.70;;;;;;5056774;28;20059;-75
2022/05/26 03:25:56;;;;;;;8.55;3.67;;;22.40;96.70;;;;;;5054821;28;20510;-76
2022/05/26 03:28:25;;;;;;;10.73;4.55;;;22.20;96.70;;;;;;5056010;28;20056;-77
2022/05/26 03:30:53;;;;;;;8.10;3.90;;;22.00;96.70;;;;;;5059776;28;20094;-77
2022/05/26 03:33:22;;;;;;;10.80;3.90;;;22.10;96.70;;;;;;5053777;28;20056;-75
2022/05/26 03:41:26;;;;;;;8.45;3.75;;;22.10;96.70;;;;;;5062399;28;20191;-76
2022/05/26 03:43:57;;;;;;;9.07;3.97;;;22.20;96.70;;;;;;5051807;28;20044;-76
2022/05/26 03:46:26;;;;;;;7.70;3.88;;;22.20;96.70;;;;;;5052070;28;20715;-76
2022/05/26 03:48:54;;;;;;;4.88;3.75;;;22.30;96.70;;;;;;5056397;28;20088;-76
2022/05/26 03:51:22;;;;;;;7.68;4.35;;;22.20;96.70;;;;;;5053334;28;20045;-76
2022/05/26 03:53:52;;;;;;;7.90;4.45;;;22.10;96.70;;;;;;5053682;28;20309;-77
2022/05/26 03:56:20;;;;;;;6.22;4.30;;;22.10;96.70;;;;;;5056818;28;20059;-79
2022/05/26 03:58:48;;;;;;;6.32;4.45;;;22.20;96.70;;;;;;5050524;28;20119;-77
2022/05/26 04:01:16;;;;;;;10.20;4.28;;;22.20;96.70;;;;;;5060036;28;20075;-76
2022/05/26 04:03:45;;;;;;;8.57;4.82;;;22.40;96.70;;;;;;5054936;28;20506;-76
2022/05/26 04:06:13;;;;;;;11.45;5.20;;;22.40;96.70;;;;;;5053767;28;20494;-76
2022/05/26 04:08:41;;;;;;;7.88;4.80;;;22.40;96.70;;;;;;5053278;28;20048;-76
2022/05/26 04:11:11;;;;;;;11.15;5.10;;;22.40;96.70;;;;;;5040554;28;20044;-77
2022/05/26 04:13:40;;;;;;;10.23;5.30;;;22.40;96.70;;;;;;5050717;28;20048;-76
2022/05/26 04:16:28;;;;;;;9.70;4.80;;;22.50;96.70;;;;;;5016813;28;20056;-75
2022/05/26 04:18:57;;;;;;;11.27;4.35;;;22.70;96.70;;;;;;5056011;28;20048;-76
2022/05/26 04:21:25;;;;;;;10.68;5.30;;;22.80;96.70;;;;;;5051854;28;20041;-76
2022/05/26 04:23:53;;;;;;;8.85;6.05;;;22.60;96.70;;;;;;5054985;28;20043;-75
2022/05/26 04:26:23;;;;;;;9.52;5.60;;;22.60;96.70;;;;;;5051876;28;20072;-77
2022/05/26 04:28:52;;;;;;;9.18;5.15;;;22.60;96.70;;;;;;5053294;28;20048;-77
2022/05/26 04:31:20;;;;;;;7.00;4.97;;;22.60;96.70;;;;;;5049710;28;20083;-77
2022/05/26 04:33:48;;;;;;;8.65;4.22;;;22.60;96.70;;;;;;5046275;28;20047;-78
2022/05/26 04:36:16;;;;;;;8.57;4.00;;;22.50;96.70;;;;;;5052705;28;20052;-78
2022/05/26 04:38:44;;;;;;;6.50;3.60;;;22.60;96.70;;;;;;5055699;28;20037;-77
2022/05/26 04:41:16;;;;;;;12.50;4.50;;;22.60;96.70;;;;;;5074171;28;20567;-78
2022/05/26 04:43:46;;;;;;;5.78;3.42;;;22.50;96.70;;;;;;5059911;28;20036;-77
2022/05/26 04:46:17;;;;;;;8.18;4.05;;;22.40;96.70;;;;;;5048734;28;20045;-78
2022/05/26 04:48:46;;;;;;;6.15;3.75;;;22.40;96.70;;;;;;5054378;28;20060;-78
2022/05/26 04:51:14;;;;;;;7.25;3.80;;;22.40;96.70;;;;;;5053293;28;20044;-78
2022/05/26 04:53:46;;;;;;;11.70;5.28;;;22.40;96.70;;;;;;5052920;28;20728;-77
2022/05/26 04:56:14;;;;;;;6.25;4.80;;;22.40;96.70;;;;;;5054270;28;20064;-77
2022/05/26 04:58:43;;;;;;;8.95;5.07;;;22.40;96.70;;;;;;5058946;28;20036;-77
2022/05/26 05:01:19;;;;;;;8.57;4.70;;;22.30;96.70;;;;;;5057877;28;20036;-77
2022/05/26 05:03:48;;;;;;;8.75;4.60;;;22.20;96.70;;;;;;5052087;28;20052;-77
2022/05/26 05:06:17;;;;;;;7.82;4.60;;;22.20;96.70;;;;;;5054201;28;20569;-78
2022/05/26 05:08:45;;;;;;;8.02;4.72;;;22.40;96.70;;;;;;5050915;28;20055;-78
2022/05/26 05:11:14;;;;;;;6.63;4.57;;;22.60;96.70;;;;;;5036778;28;20541;-77
2022/05/26 05:13:42;;;;;;;8.30;4.78;;;22.70;96.70;;;;;;5056656;28;20457;-76
2022/05/26 05:16:19;;;;;;;9.43;5.60;;;22.60;96.70;;;;;;5049531;28;20432;-76
2022/05/26 05:18:50;;;;;;;11.88;5.43;;;22.70;96.70;;;;;;5051058;28;20053;-78
2022/05/26 05:21:22;;;;;;;11.38;5.13;;;22.60;96.70;;;;;;5050396;28;20063;-78
2022/05/26 05:23:55;;;;;;;9.20;5.60;;;22.60;96.70;;;;;;5038693;28;20060;-77
2022/05/26 05:26:25;;;;;;;12.02;5.93;;;22.70;96.70;;;;;;5055030;28;20043;-78
2022/05/26 05:29:01;;;;;;;8.43;5.75;;;22.80;96.70;;;;;;5047736;28;20518;-77
2022/05/26 05:31:43;;;;;;;10.38;5.45;;;22.80;96.70;;;;;;5053922;28;20068;-77
2022/05/26 05:34:15;;;;;;;7.63;5.40;;;22.80;96.70;;;;;;5051809;28;20067;-78
2022/05/26 05:36:44;;;;;;;7.32;5.50;;;22.90;96.70;;;;;;5052785;28;20098;-77
2022/05/26 05:39:13;;;;;;;10.75;5.55;;;23.00;96.70;;;;;;5054732;28;20058;-77
2022/05/26 05:41:41;;;;;;;14.32;6.07;;;23.10;96.70;;;;;;5056957;28;20079;-78
2022/05/26 05:44:10;;;;;;;11.85;5.93;;;23.20;96.70;;;;;;5054211;28;20041;-78
2022/05/26 05:46:54;;;;;;;10.25;5.82;;;23.30;96.70;;;;;;5051062;28;20036;-78
2022/05/26 05:49:24;;;;;;;13.10;5.82;;;23.30;96.70;;;;;;5050519;28;20067;-78
2022/05/26 05:51:53;;;;;;;12.20;6.05;;;23.30;96.70;;;;;;5061277;28;20447;-84
2022/05/26 05:54:22;;;;;;;9.60;5.55;;;23.20;96.70;;;;;;5063271;28;20080;-85
2022/05/26 05:56:50;;;;;;;10.48;5.60;;;23.20;96.70;;;;;;5066020;28;20040;-84
2022/05/26 05:59:18;;;;;;;9.60;5.60;;;23.20;96.70;;;;;;5060238;28;20123;-78
2022/05/26 06:01:48;;;;;;;9.05;5.13;;;23.30;96.70;;;;;;5054024;28;20044;-80
2022/05/26 06:04:16;;;;;;;12.60;5.68;;;23.30;96.70;;;;;;5058881;28;20040;-76
2022/05/26 06:06:44;;;;;;;7.53;5.90;;;23.20;96.70;;;;;;5051825;28;20114;-80
2022/05/26 06:09:15;;;;;;;13.68;6.50;;;23.20;96.70;;;;;;5054138;28;20633;-80
2022/05/26 06:11:45;;;;;;;10.70;7.25;;;23.30;96.70;;;;;;5052391;28;20049;-78
2022/05/26 06:14:13;;;;;;;15.80;8.35;;;23.20;96.70;;;;;;5054435;28;20041;-78
2022/05/26 06:16:42;;;;;;;20.20;9.32;;;23.20;96.70;;;;;;5041388;28;20051;-77
2022/05/26 06:19:12;;;;;;;16.15;10.23;;;23.20;96.70;;;;;;5050491;28;20041;-78
2022/05/26 06:21:41;;;;;;;19.80;10.43;;;23.10;96.70;;;;;;5055685;28;20442;-78
2022/05/26 06:24:10;;;;;;;19.63;10.60;;;23.10;96.70;;;;;;5052530;28;20961;-77
2022/05/26 06:26:38;;;;;;;20.33;10.80;;;23.20;96.70;;;;;;5049695;28;20053;-79
2022/05/26 06:37:37;;;;;;;13.65;8.38;;;23.50;96.70;;;;;;5048258;28;20045;-78
2022/05/26 06:40:07;;;;;;;16.95;8.63;;;23.50;96.70;;;;;;5056391;28;20530;-79
2022/05/26 06:42:35;;;;;;;15.52;9.30;;;23.60;96.70;;;;;;5060710;28;20045;-79
2022/05/26 06:45:05;;;;;;;16.20;10.43;;;23.60;96.70;;;;;;5061049;28;20094;-79
2022/05/26 06:47:34;;;;;;;15.70;10.18;;;23.60;96.70;;;;;;5056273;28;20059;-79
2022/05/26 06:50:05;;;;;;;15.55;10.60;;;23.60;96.70;;;;;;5059902;28;20053;-79
2022/05/26 06:52:34;;;;;;;18.23;9.77;;;23.70;96.70;;;;;;5039738;28;20053;-79
2022/05/26 06:55:06;;;;;;;15.32;9.60;;;23.60;96.70;;;;;;5052569;28;20040;-79
2022/05/26 06:57:54;;;;;;;12.32;8.05;;;23.80;96.70;;;;;;5058511;28;20049;-78
2022/05/26 07:00:22;;;;;;;16.20;10.27;;;24.10;96.70;;;;;;5056732;28;20067;-78
2022/05/26 07:02:52;;;;;;;17.55;8.60;;;24.10;96.70;;;;;;5039149;28;20076;-79
2022/05/26 07:05:22;;;;;;;13.13;9.55;;;24.00;96.70;;;;;;5056082;28;20550;-80
2022/05/26 07:07:51;;;;;;;12.75;9.38;;;24.10;96.70;;;;;;5051788;28;20063;-79
2022/05/26 07:10:19;;;;;;;18.58;9.57;;;24.10;96.70;;;;;;5040472;28;20507;-78
2022/05/26 07:12:47;;;;;;;340.13;304.83;;;24.10;96.70;;;;;;5045875;28;20146;-78
2022/05/26 07:15:16;;;;;;;209.23;187.75;;;24.10;96.70;;;;;;5044476;28;20574;-78
2022/05/26 07:17:46;;;;;;;111.28;96.75;;;24.20;96.70;;;;;;5040359;28;20044;-79
2022/05/26 07:20:15;;;;;;;83.25;74.55;;;24.00;96.70;;;;;;5050201;28;20713;-79
2022/05/26 07:22:45;;;;;;;84.68;74.25;;;24.00;96.70;;;;;;5045389;28;20059;-79
2022/05/26 07:25:13;;;;;;;34.17;30.55;;;24.10;96.70;;;;;;5034053;28;20051;-77
2022/05/26 07:27:42;;;;;;;29.23;23.08;;;24.10;96.70;;;;;;5043775;28;20109;-78
2022/05/26 07:30:11;;;;;;;24.52;17.08;;;24.10;96.70;;;;;;5052918;28;20076;-79
2022/05/26 07:32:39;;;;;;;18.60;14.63;;;24.20;96.70;;;;;;5046473;28;20052;-80
2022/05/26 07:35:10;;;;;;;15.70;9.07;;;24.10;96.70;;;;;;5048925;28;20067;-79
2022/05/26 07:43:19;;;;;;;10.02;7.22;;;24.20;96.70;;;;;;5061530;28;20483;-80
2022/05/26 07:45:49;;;;;;;16.25;8.82;;;24.30;96.70;;;;;;5055089;28;20041;-78
2022/05/26 07:48:17;;;;;;;13.85;8.65;;;24.30;96.70;;;;;;5060079;28;20064;-79
2022/05/26 07:50:45;;;;;;;18.23;8.25;;;24.30;96.70;;;;;;5054015;28;20073;-78
2022/05/26 07:53:14;;;;;;;12.30;7.10;;;24.30;96.70;;;;;;5038363;28;20151;-79
2022/05/26 07:55:44;;;;;;;10.52;6.50;;;24.30;96.70;;;;;;5053612;28;20135;-79
2022/05/26 07:58:13;;;;;;;11.98;6.93;;;24.40;96.70;;;;;;5056147;28;20475;-78
2022/05/26 08:00:41;;;;;;;12.05;6.85;;;24.50;96.70;;;;;;5045604;28;20047;-78
2022/05/26 08:03:10;;;;;;;11.48;6.75;;;24.60;96.70;;;;;;5051503;28;20044;-78
2022/05/26 08:05:38;;;;;;;9.05;6.28;;;24.70;96.70;;;;;;5052452;28;20128;-79
2022/05/26 08:08:07;;;;;;;10.27;6.45;;;24.90;96.70;;;;;;5046945;28;20410;-79
2022/05/26 08:10:35;;;;;;;10.63;6.38;;;25.00;96.70;;;;;;5044260;28;20037;-78
2022/05/26 08:13:06;;;;;;;12.50;7.47;;;25.20;96.70;;;;;;5056384;28;20558;-79
2022/05/26 08:15:34;;;;;;;14.40;6.57;;;25.30;96.70;;;;;;5052652;28;20048;-80
2022/05/26 08:18:02;;;;;;;12.05;6.78;;;25.30;96.70;;;;;;5052367;28;20041;-79
2022/05/26 08:20:31;;;;;;;11.60;6.40;;;25.40;96.70;;;;;;5057723;28;20037;-80
2022/05/26 08:22:59;;;;;;;12.50;6.43;;;25.40;96.70;;;;;;5041221;28;20555;-78
2022/05/26 08:25:29;;;;;;;10.50;6.32;;;25.30;96.70;;;;;;5051417;28;20076;-78
2022/05/26 08:27:57;;;;;;;14.38;7.22;;;25.40;96.70;;;;;;5061003;28;20136;-79
2022/05/26 08:30:27;;;;;;;9.32;6.68;;;25.40;96.70;;;;;;5057837;28;20045;-78
2022/05/26 08:32:56;;;;;;;13.57;7.97;;;25.50;96.70;;;;;;5042678;28;20059;-78
2022/05/26 08:35:24;;;;;;;14.57;8.10;;;25.50;96.70;;;;;;5053961;28;20075;-79
2022/05/26 08:37:52;;;;;;;15.13;7.40;;;25.60;96.70;;;;;;5039421;28;20044;-79
2022/05/26 08:40:30;;;;;;;16.05;8.35;;;25.60;96.70;;;;;;5055693;28;20045;-78
2022/05/26 08:42:59;;;;;;;16.17;8.40;;;25.70;96.70;;;;;;5055930;28;20044;-79
2022/05/26 08:45:32;;;;;;;15.70;9.10;;;25.70;96.70;;;;;;5061203;28;20608;-79
2022/05/26 08:48:00;;;;;;;13.65;8.23;;;25.70;96.70;;;;;;5056507;28;20420;-79
2022/05/26 08:50:33;;;;;;;19.48;8.93;;;25.80;96.70;;;;;;5053806;28;20048;-78
2022/05/26 08:53:06;;;;;;;13.43;7.70;;;25.80;96.70;;;;;;5058455;28;20059;-79
2022/05/26 08:55:40;;;;;;;15.40;8.20;;;25.80;96.70;;;;;;5056879;28;20063;-79
2022/05/26 08:58:11;;;;;;;19.55;8.55;;;25.90;96.70;;;;;;5056271;28;20057;-79
2022/05/26 09:00:43;;;;;;;16.30;8.98;;;25.90;96.70;;;;;;5036654;28;20135;-79
2022/05/26 09:03:24;;;;;;;17.55;8.70;;;26.00;96.70;;;;;;5059071;28;20682;-78
2022/05/26 09:06:03;;;;;;;15.50;9.15;;;26.10;96.70;;;;;;5048660;28;20498;-79
2022/05/26 09:14:22;;;;;;;16.92;9.00;;;26.30;96.70;;;;;;5051785;28;20056;-78
2022/05/26 09:16:57;;;;;;;15.63;9.07;;;26.30;96.70;;;;;;5058573;28;20501;-79
2022/05/26 09:19:31;;;;;;;15.90;10.25;;;26.40;96.70;;;;;;5054470;28;20558;-78
2022/05/26 09:22:00;;;;;;;13.10;7.38;;;26.40;96.70;;;;;;5056085;28;20040;-78
2022/05/26 09:24:39;;;;;;;13.52;7.68;;;26.50;96.70;;;;;;5051371;28;20973;-78
2022/05/26 09:27:25;;;;;;;15.10;8.38;;;26.40;96.70;;;;;;5052919;28;20033;-80
2022/05/26 09:29:54;;;;;;;18.00;8.43;;;26.50;96.70;;;;;;5051720;28;20056;-80
2022/05/26 09:32:30;;;;;;;14.88;8.75;;;26.70;96.70;;;;;;5051976;28;20094;-79
2022/05/26 09:35:05;;;;;;;15.73;9.98;;;26.80;96.70;;;;;;5050729;28;20051;-80
2022/05/26 09:37:38;;;;;;;22.67;11.10;;;26.90;96.70;;;;;;5038554;28;20232;-79
2022/05/26 09:40:17;;;;;;;14.43;8.85;;;27.00;96.70;;;;;;5055885;28;20047;-79
2022/05/26 09:42:51;;;;;;;15.75;8.07;;;27.00;96.70;;;;;;5052221;28;20762;-79
2022/05/26 09:45:20;;;;;;;11.98;7.80;;;27.00;96.70;;;;;;5053868;28;20585;-79
2022/05/26 09:47:57;;;;;;;12.32;7.28;;;27.20;96.70;;;;;;5054350;28;20065;-79
2022/05/26 09:50:53;;;;;;;16.48;8.43;;;27.50;96.70;;;;;;5040597;28;20056;-78
2022/05/26 09:53:31;;;;;;;15.15;8.35;;;27.60;96.70;;;;;;5030845;28;20105;-79
2022/05/26 09:55:59;;;;;;;10.82;8.10;;;27.40;96.70;;;;;;5054478;28;20452;-79
2022/05/26 09:58:31;;;;;;;17.02;8.80;;;27.30;96.70;;;;;;5058515;28;20041;-78
2022/05/26 10:01:01;;;;;;;14.07;8.27;;;27.30;96.70;;;;;;5041524;28;20049;-80
2022/05/26 10:03:44;;;;;;;11.65;7.68;;;27.40;96.70;;;;;;5051772;28;20115;-79
2022/05/26 10:06:21;;;;;;;15.38;7.25;;;27.60;96.70;;;;;;5050876;28;20049;-78
2022/05/26 10:08:56;;;;;;;;;;;27.60;96.70;;;;;;5053203;28;20079;-78
2022/05/26 10:11:43;;;;;;;13.20;6.13;;;27.60;96.70;;;;;;5048142;28;19962;-78
2022/05/26 10:14:24;;;;;;;9.90;6.57;;;27.70;96.70;;;;;;5052994;28;20555;-79
2022/05/26 10:17:03;;;;;;;10.75;6.40;;;27.80;96.70;;;;;;5055299;28;20037;-79
2022/05/26 10:19:47;;;;;;;13.73;6.93;;;27.90;96.70;;;;;;5060960;28;20049;-79
2022/05/26 10:22:30;;;;;;;9.55;6.78;;;27.80;96.70;;;;;;5059155;28;20049;-78
2022/05/26 10:25:18;;;;;;;8.90;5.55;;;28.10;96.70;;;;;;5058463;28;20102;-78
2022/05/26 10:28:18;;;;;;;13.02;6.28;;;28.40;96.70;;;;;;5057253;28;20068;-78
2022/05/26 10:30:57;;;;;;;9.15;6.18;;;28.50;96.70;;;;;;5062795;28;20040;-78
2022/05/26 10:33:49;;;;;;;8.18;6.25;;;28.40;96.70;;;;;;5053317;28;20074;-77
2022/05/26 10:36:25;;;;;;;9.23;6.93;;;28.60;96.70;;;;;;5061569;28;20149;-77
2022/05/26 10:39:16;;;;;;;11.00;6.93;;;28.50;96.70;;;;;;5033875;28;20076;-78
2022/05/26 10:41:50;;;;;;;9.98;6.75;;;28.40;96.70;;;;;;5058668;28;20047;-81
2022/05/26 10:44:25;;;;;;;11.80;6.40;;;28.50;96.70;;;;;;5064609;28;20690;-80
2022/05/26 10:46:59;;;;;;;8.65;6.38;;;28.50;96.70;;;;;;5061716;28;20077;-83
2022/05/26 10:49:35;;;;;;;13.07;6.00;;;28.50;96.70;;;;;;5062629;28;20154;-84
2022/05/26 10:52:12;;;;;;;9.60;6.03;;;28.60;96.70;;;;;;5066457;28;20496;-82
2022/05/26 10:54:50;;;;;;;7.55;6.00;;;28.70;96.70;;;;;;5069088;28;20048;-83
2022/05/26 10:57:26;;;;;;;9.70;5.93;;;28.80;96.70;;;;;;5043135;28;20063;-82
2022/05/26 11:00:01;;;;;;;11.55;5.75;;;29.10;96.70;;;;;;5055753;28;20047;-80
2022/05/26 11:02:36;;;;;;;9.23;6.90;;;29.20;96.70;;;;;;5055729;28;20044;-81
2022/05/26 11:05:08;;;;;;;12.55;6.13;;;29.20;96.70;;;;;;5058366;28;20120;-81
2022/05/26 11:07:44;;;;;;;8.25;5.20;;;29.00;96.70;;;;;;5058907;28;20052;-83
2022/05/26 11:10:18;;;;;;;11.60;5.43;;;29.00;96.70;;;;;;5057991;28;20536;-83
2022/05/26 11:12:51;;;;;;;9.85;4.93;;;29.20;96.70;;;;;;5062313;28;20128;-83
2022/05/26 11:18:18;;;;;;;10.10;5.05;;;29.40;96.70;;;;;;5065685;28;20049;-83
2022/05/26 11:20:53;;;;;;;16.08;5.70;;;29.50;96.70;;;;;;5044947;28;20113;-83
2022/05/26 11:23:25;;;;;;;9.35;4.68;;;29.50;96.70;;;;;;5065708;28;20052;-82
2022/05/26 11:26:00;;;;;;;12.07;5.70;;;29.60;96.70;;;;;;5059896;28;20045;-82
2022/05/26 11:28:34;;;;;;;9.57;4.63;;;29.70;96.70;;;;;;5063658;28;20075;-81
2022/05/26 11:36:47;;;;;;;8.45;4.00;;;30.40;96.70;;;;;;5052368;28;20130;-83
2022/05/26 11:39:25;;;;;;;8.20;4.10;;;30.40;96.70;;;;;;5067247;28;20076;-82
2022/05/26 11:41:56;;;;;;;8.50;4.80;;;30.50;96.70;;;;;;5058652;28;20048;-84
2022/05/26 11:44:38;;;;;;;11.93;5.03;;;30.70;96.70;;;;;;5068808;28;20053;-83
2022/05/26 11:47:31;;;;;;;10.27;5.57;;;30.60;96.70;;;;;;5069818;28;20074;-81
2022/05/26 11:50:25;;;;;;;14.25;6.30;;;30.50;96.70;;;;;;5064035;28;20060;-84
2022/05/26 11:53:12;;;;;;;9.85;5.25;;;30.60;96.70;;;;;;5009593;28;20045;-82
2022/05/26 11:55:54;;;;;;;12.15;5.82;;;30.70;96.70;;;;;;5015286;28;20080;-82
2022/05/26 11:58:35;;;;;;;10.05;5.30;;;31.10;96.70;;;;;;5018282;28;20045;-83
2022/05/26 12:01:16;;;;;;;7.45;4.72;;;31.00;96.70;;;;;;5004154;28;20053;-83
2022/05/26 12:04:00;;;;;;;11.73;4.38;;;31.40;96.70;;;;;;4996817;28;20150;-86
2022/05/26 12:06:34;;;;;;;10.50;4.50;;;31.60;96.70;;;;;;5020062;28;20148;-86
2022/05/26 12:09:05;;;;;;;8.30;5.18;;;31.70;96.70;;;;;;5002425;28;20053;-80
2022/05/26 12:11:56;;;;;;;10.85;4.38;;;31.60;96.70;;;;;;4999199;28;20538;-80
2022/05/26 12:14:27;;;;;;;7.78;4.47;;;31.40;96.70;;;;;;5016198;28;20084;-80
2022/05/26 12:17:29;;;;;;;6.20;3.63;;;31.40;96.70;;;;;;4999208;28;20057;-80
2022/05/26 12:19:58;;;;;;;8.65;4.15;;;31.60;96.70;;;;;;5015638;28;20054;-77
2022/05/26 12:22:32;;;;;;;9.00;4.03;;;31.80;96.70;;;;;;5002431;28;20083;-79
2022/05/26 12:25:19;;;;;;;6.70;3.90;;;31.90;96.70;;;;;;5034096;28;20045;-77
2022/05/26 12:28:25;;;;;;;6.03;3.30;;;32.00;96.70;;;;;;5059243;28;20122;-78
2022/05/26 12:31:14;;;;;;;8.55;3.85;;;32.10;96.70;;;;;;5052295;28;20687;-78
2022/05/26 12:34:15;;;;;;;9.43;3.70;;;32.30;96.70;;;;;;5057798;28;20048;-77
2022/05/26 12:37:06;;;;;;;9.40;3.45;;;32.40;96.70;;;;;;5053393;28;20394;-78
2022/05/26 12:40:14;;;;;;;5.57;3.47;;;32.60;96.70;;;;;;5058474;28;20072;-78
2022/05/26 12:42:59;;;;;;;6.50;2.95;;;32.70;96.00;;;;;;5057074;28;20110;-78
2022/05/26 12:45:48;;;;;;;8.98;3.65;;;32.80;95.80;;;;;;5056463;28;20135;-77
2022/05/26 12:48:41;;;;;;;10.27;3.60;;;32.90;96.70;;;;;;5049705;28;20087;-78
2022/05/26 12:51:11;;;;;;;11.48;3.80;;;33.00;95.30;;;;;;5048416;28;20048;-77
2022/05/26 12:53:50;;;;;;;12.93;3.97;;;32.80;94.60;;;;;;5049091;28;20556;-78
2022/05/26 12:56:24;;;;;;;7.40;2.92;;;32.70;95.80;;;;;;5050997;28;20045;-78
2022/05/26 12:58:56;;;;;;;6.22;3.10;;;33.00;94.70;;;;;;5056662;28;20307;-77
2022/05/26 13:01:28;;;;;;;8.20;3.38;;;33.30;93.40;;;;;;5046503;28;20048;-77
2022/05/26 13:04:03;;;;;;;9.32;2.95;;;33.50;92.60;;;;;;5055854;28;20051;-78
2022/05/26 13:06:36;;;;;;;6.07;3.30;;;33.70;94.30;;;;;;5051290;28;20060;-78
2022/05/26 13:09:12;;;;;;;8.50;3.63;;;33.80;94.20;;;;;;5057932;28;20107;-77
2022/05/26 13:11:44;;;;;;;5.13;3.25;;;33.90;93.70;;;;;;5050976;28;20072;-78
2022/05/26 13:14:28;;;;;;;9.05;3.38;;;34.00;94.50;;;;;;5039983;28;20048;-78
2022/05/26 13:17:00;;;;;;;7.25;3.45;;;34.20;93.10;;;;;;5054525;28;20091;-79
2022/05/26 13:19:28;;;;;;;9.73;3.47;;;34.40;91.30;;;;;;5034914;28;20052;-77
2022/05/26 13:21:58;;;;;;;7.50;3.17;;;34.60;91.80;;;;;;5056831;28;20148;-77
2022/05/26 13:24:28;;;;;;;9.10;3.28;;;34.70;92.80;;;;;;5054997;28;20049;-78
2022/05/26 13:26:58;;;;;;;8.15;3.40;;;34.60;91.90;;;;;;5052389;28;20048;-78
2022/05/26 13:29:28;;;;;;;7.15;3.13;;;34.50;92.20;;;;;;5051788;28;20136;-78
2022/05/26 13:34:47;;;;;;;8.23;3.60;;;34.60;91.10;;;;;;5052741;28;20055;-77
2022/05/26 13:37:20;;;;;;;7.82;3.15;;;34.70;90.20;;;;;;5043241;28;20052;-78
2022/05/26 13:40:05;;;;;;;9.68;2.85;;;34.90;89.40;;;;;;5054546;28;20048;-78
2022/05/26 13:42:35;;;;;;;6.25;2.72;;;34.90;89.10;;;;;;5058022;28;20055;-78
2022/05/26 13:45:05;;;;;;;7.30;2.90;;;34.90;90.40;;;;;;5054322;28;20041;-78
2022/05/26 13:47:39;;;;;;;7.32;3.13;;;34.60;89.90;;;;;;5055393;28;20434;-79
2022/05/26 13:50:10;;;;;;;8.10;3.10;;;34.30;89.40;;;;;;5052254;28;20048;-78
2022/05/26 13:52:40;;;;;;;7.72;3.20;;;34.60;89.30;;;;;;5060903;28;20045;-79